createdAt,value
2019-04-24T00:01:17.752Z,19.80
2019-04-24T00:02:21.808Z,20.50
2019-04-24T00:03:29.229Z,19.70
2019-04-24T00:04:17.721Z,21.30
2019-04-24T00:05:38.631Z,20.60
2019-04-24T00:06:14.773Z,20.50
2019-04-24T00:08:27.128Z,20.50
2019-04-24T00:09:14.651Z,21.40
2019-04-24T00:10:12.921Z,19.90
2019-04-24T00:11:27.448Z,21.10
2019-04-24T00:12:16.900Z,21.10
2019-04-24T00:13:33.138Z,19.40
2019-04-24T00:15:27.659Z,21.40
2019-04-24T00:16:22.487Z,21.90
2019-04-24T00:17:10.951Z,21.70
2019-04-24T00:18:26.843Z,22.70
2019-04-24T00:21:10.494Z,22.40
2019-04-24T00:25:14.037Z,22.60
2019-04-24T00:26:10.051Z,22.40
2019-04-24T00:27:15.440Z,23.40
2019-04-24T00:29:19.672Z,23.20
2019-04-24T00:30:01.565Z,23.50
2019-04-24T00:32:09.616Z,23.90
2019-04-24T00:33:15.328Z,22.30
2019-04-24T00:34:16.214Z,22.70
2019-04-24T00:36:29.394Z,22.20
2019-04-24T00:38:12.432Z,24.20
2019-04-24T00:39:55.629Z,24.10
2019-04-24T00:42:09.907Z,23.80
2019-04-24T00:44:05.014Z,25.50
2019-04-24T00:46:19.262Z,26.10
2019-04-24T00:47:08.597Z,24.90
2019-04-24T00:49:18.837Z,24.40
2019-04-24T00:50:03.612Z,24.60
2019-04-24T00:51:17.730Z,25.20
2019-04-24T00:54:11.222Z,26.10
2019-04-24T00:56:10.223Z,24.60
2019-04-24T00:57:11.951Z,25.70
2019-04-24T00:58:03.550Z,25.50
2019-04-24T00:59:17.905Z,26.50
2019-04-24T00:59:56.319Z,27.20
2019-04-24T01:01:15.689Z,25.90
2019-04-24T01:02:12.267Z,27.20
2019-04-24T01:03:12.209Z,26.40
2019-04-24T01:06:23.485Z,27.20
2019-04-24T01:07:19.376Z,27.70
2019-04-24T01:08:06.212Z,23.30
2019-04-24T01:09:10.017Z,26.30
2019-04-24T01:11:07.522Z,26.10
2019-04-24T01:12:07.868Z,26.80
2019-04-24T01:14:09.110Z,25.60
2019-04-24T01:15:20.600Z,26.90
2019-04-24T01:17:14.108Z,27.40
2019-04-24T01:17:55.768Z,27.20
2019-04-24T01:21:07.119Z,27.10
2019-04-24T01:24:07.340Z,27.30
2019-04-24T01:25:17.650Z,25.90
2019-04-24T01:26:08.893Z,26.50
2019-04-24T01:27:00.840Z,27.10
2019-04-24T01:29:01.174Z,29.00
2019-04-24T01:30:35.441Z,29.70
2019-04-24T01:31:13.555Z,29.40
2019-04-24T01:32:00.929Z,28.80
2019-04-24T01:34:10.282Z,26.00
2019-04-24T01:34:58.420Z,28.60
2019-04-24T01:36:09.111Z,27.30
2019-04-24T01:38:08.379Z,28.50
2019-04-24T01:39:01.278Z,28.20
2019-04-24T01:39:55.811Z,27.30
2019-04-24T01:41:14.793Z,29.60
2019-04-24T01:42:20.607Z,29.10
2019-04-24T01:43:09.645Z,29.20
2019-04-24T01:46:11.749Z,30.30
2019-04-24T01:47:08.048Z,29.30
2019-04-24T01:48:17.759Z,29.60
2019-04-24T01:49:10.435Z,29.10
2019-04-24T01:49:59.139Z,30.80
2019-04-24T01:50:57.445Z,31.00
2019-04-24T01:52:16.003Z,27.70
2019-04-24T01:54:03.844Z,30.00
2019-04-24T01:55:06.668Z,31.10
2019-04-24T01:56:03.172Z,31.10
2019-04-24T01:57:02.779Z,30.30
2019-04-24T01:58:02.512Z,32.30
2019-04-24T01:59:01.539Z,31.80
2019-04-24T01:59:55.279Z,31.20
2019-04-24T02:01:02.193Z,31.90
2019-04-24T02:02:03.504Z,32.60
2019-04-24T02:02:53.847Z,32.20
2019-04-24T02:03:59.746Z,32.40
2019-04-24T02:06:00.770Z,32.50
2019-04-24T02:07:07.043Z,31.80
2019-04-24T02:09:05.467Z,31.90
2019-04-24T02:10:12.051Z,31.80
2019-04-24T02:12:20.937Z,28.80
2019-04-24T02:13:14.764Z,32.90
2019-04-24T02:14:01.867Z,32.20
2019-04-24T02:15:52.572Z,34.00
2019-04-24T02:17:01.026Z,33.10
2019-04-24T02:17:58.439Z,32.60
2019-04-24T02:18:58.974Z,33.60
2019-04-24T02:20:06.205Z,33.30
2019-04-24T02:21:10.696Z,33.00
2019-04-24T02:21:59.449Z,31.60
2019-04-24T02:24:01.527Z,31.60
2019-04-24T02:26:02.963Z,33.40
2019-04-24T02:26:53.878Z,30.70
2019-04-24T02:29:06.360Z,32.20
2019-04-24T02:29:49.761Z,33.00
2019-04-24T02:32:24.639Z,33.70
2019-04-24T02:34:08.318Z,33.70
2019-04-24T02:35:19.315Z,32.90
2019-04-24T02:36:17.562Z,33.20
2019-04-24T02:38:26.546Z,34.70
2019-04-24T02:39:28.498Z,31.70
2019-04-24T02:40:59.468Z,34.40
2019-04-24T02:42:18.223Z,33.60
2019-04-24T02:43:05.606Z,33.20
2019-04-24T02:44:30.256Z,33.60
2019-04-24T02:46:03.973Z,31.80
2019-04-24T02:46:57.155Z,33.80
2019-04-24T02:50:04.249Z,34.50
2019-04-24T02:50:58.013Z,34.30
2019-04-24T02:52:13.143Z,34.30
2019-04-24T02:53:17.594Z,34.40
2019-04-24T02:54:19.089Z,33.90
2019-04-24T02:56:13.801Z,34.50
2019-04-24T02:58:04.922Z,34.80
2019-04-24T03:00:03.472Z,28.80
2019-04-24T03:04:01.627Z,33.50
2019-04-24T03:07:06.651Z,34.50
2019-04-24T03:08:18.451Z,33.50
2019-04-24T03:09:10.595Z,34.00
2019-04-24T03:11:10.361Z,33.20
2019-04-24T03:12:22.180Z,34.10
2019-04-24T03:13:12.017Z,33.70
2019-04-24T03:14:24.490Z,31.80
2019-04-24T03:16:38.050Z,31.80
2019-04-24T03:19:11.477Z,34.30
2019-04-24T03:21:08.688Z,33.70
2019-04-24T03:23:08.649Z,35.00
2019-04-24T03:24:02.018Z,36.40
2019-04-24T03:25:29.294Z,34.60
2019-04-24T03:26:41.538Z,35.00
2019-04-24T03:27:09.792Z,34.20
2019-04-24T03:28:06.431Z,34.80
2019-04-24T03:30:01.428Z,34.70
2019-04-24T03:31:18.793Z,35.60
2019-04-24T03:35:19.461Z,37.00
2019-04-24T03:37:25.266Z,37.10
2019-04-24T03:39:07.460Z,34.00
2019-04-24T03:40:44.300Z,32.00
2019-04-24T03:42:46.846Z,35.80
2019-04-24T03:43:21.223Z,32.30
2019-04-24T03:44:17.132Z,35.30
2019-04-24T03:45:53.991Z,34.50
2019-04-24T03:46:45.294Z,35.40
2019-04-24T03:50:01.184Z,36.50
2019-04-24T03:54:07.835Z,33.50
2019-04-24T03:55:03.499Z,35.10
2019-04-24T03:57:04.227Z,34.60
2019-04-24T03:58:13.112Z,34.20
2019-04-24T03:59:03.725Z,34.90
2019-04-24T04:00:19.131Z,33.80
2019-04-24T04:01:02.267Z,33.90
2019-04-24T04:02:05.831Z,33.60
2019-04-24T04:04:13.648Z,31.30
2019-04-24T04:05:35.904Z,33.70
2019-04-24T04:08:09.895Z,33.00
2019-04-24T04:13:44.455Z,31.10
2019-04-24T04:17:21.047Z,31.00
2019-04-24T04:19:48.839Z,33.10
2019-04-24T04:27:55.084Z,32.00
2019-04-24T04:29:09.105Z,32.40
2019-04-24T04:32:06.807Z,32.10
2019-04-24T04:33:11.349Z,31.60
2019-04-24T04:35:56.896Z,30.70
2019-04-24T04:38:01.610Z,31.30
2019-04-24T04:39:56.950Z,33.30
2019-04-24T04:44:07.102Z,31.10
2019-04-24T04:46:07.957Z,30.30
2019-04-24T04:47:35.296Z,30.60
2019-04-24T04:50:09.655Z,29.60
2019-04-24T04:52:05.760Z,30.40
2019-04-24T04:53:52.649Z,28.80
2019-04-24T04:56:48.977Z,30.00
2019-04-24T04:58:01.079Z,30.10
2019-04-24T04:58:57.867Z,29.80
2019-04-24T05:00:00.943Z,29.70
2019-04-24T05:01:06.891Z,29.00
2019-04-24T05:01:56.738Z,26.70
2019-04-24T05:03:00.382Z,28.10
2019-04-24T05:04:57.184Z,31.00
2019-04-24T05:07:51.583Z,29.00
2019-04-24T05:16:10.610Z,30.50
2019-04-24T05:17:57.203Z,29.00
2019-04-24T05:19:43.937Z,27.80
2019-04-24T05:20:53.353Z,30.20
2019-04-24T05:22:34.517Z,29.70
2019-04-24T05:27:11.845Z,27.60
2019-04-24T05:27:37.216Z,28.80
2019-04-24T05:28:51.250Z,30.30
2019-04-24T05:30:39.458Z,29.60
2019-04-24T05:33:13.460Z,27.30
2019-04-24T05:33:40.972Z,27.80
2019-04-24T05:34:49.305Z,27.80
2019-04-24T05:37:47.044Z,28.50
2019-04-24T05:40:45.736Z,27.00
2019-04-24T05:44:39.082Z,28.70
2019-04-24T05:46:39.945Z,27.90
2019-04-24T05:48:44.849Z,25.10
2019-04-24T05:49:46.165Z,25.40
2019-04-24T05:50:43.797Z,25.20
2019-04-24T05:51:50.845Z,25.30
2019-04-24T05:52:47.236Z,24.00
2019-04-24T05:53:38.054Z,24.40
2019-04-24T05:54:36.610Z,23.20
2019-04-24T05:55:50.852Z,24.80
2019-04-24T05:56:48.353Z,23.20
2019-04-24T05:58:46.011Z,23.60
2019-04-24T05:59:40.872Z,23.60
2019-04-24T06:00:52.888Z,21.60
2019-04-24T06:01:55.484Z,23.60
2019-04-24T06:02:51.061Z,24.20
2019-04-24T06:03:59.240Z,22.90
2019-04-24T06:04:46.327Z,24.60
2019-04-24T06:05:47.089Z,22.90
2019-04-24T06:06:48.996Z,23.40
2019-04-24T06:08:31.944Z,23.10
2019-04-24T06:09:34.901Z,22.70
2019-04-24T06:10:49.072Z,22.80
2019-04-24T06:11:48.667Z,22.90
2019-04-24T06:16:50.977Z,22.60
2019-04-24T06:17:45.218Z,22.00
2019-04-24T06:18:53.130Z,20.70
2019-04-24T06:21:31.440Z,21.30
2019-04-24T06:24:30.240Z,21.30
2019-04-24T06:29:13.985Z,21.20
2019-04-24T06:30:47.070Z,21.70
2019-04-24T06:33:36.713Z,19.40
2019-04-24T06:34:52.974Z,20.50
2019-04-24T06:35:49.651Z,19.50
2019-04-24T06:37:40.636Z,21.80
2019-04-24T06:38:35.714Z,20.40
2019-04-24T06:39:42.253Z,19.90
2019-04-24T06:41:37.031Z,18.90
2019-04-24T06:42:48.163Z,19.90
2019-04-24T06:43:48.551Z,18.70
2019-04-24T06:45:01.274Z,19.20
2019-04-24T06:46:58.842Z,18.10
2019-04-24T06:47:54.191Z,17.10
2019-04-24T06:48:35.544Z,19.40
2019-04-24T06:49:15.435Z,17.00
2019-04-24T06:51:28.417Z,18.30
2019-04-24T06:52:33.549Z,18.60
2019-04-24T06:55:38.361Z,16.30
2019-04-24T06:56:40.263Z,17.70
2019-04-24T06:58:26.681Z,17.50
2019-04-24T06:59:36.302Z,18.90
2019-04-24T07:02:31.255Z,17.70
2019-04-24T07:03:47.974Z,17.60
2019-04-24T07:04:50.162Z,16.90
2019-04-24T07:05:27.440Z,18.20
2019-04-24T07:08:35.312Z,17.40
2019-04-24T07:12:31.352Z,17.30
2019-04-24T07:13:49.239Z,16.70
2019-04-24T07:14:44.913Z,17.00
2019-04-24T07:15:44.765Z,16.40
2019-04-24T07:16:43.672Z,21.90
2019-04-24T07:19:39.384Z,16.20
2019-04-24T07:20:43.982Z,15.30
2019-04-24T07:21:32.478Z,15.70
2019-04-24T07:22:23.996Z,15.70
2019-04-24T07:23:29.569Z,14.60
2019-04-24T07:25:47.890Z,15.60
2019-04-24T07:26:24.915Z,15.60
2019-04-24T07:27:41.711Z,14.20
2019-04-24T07:29:36.674Z,14.60
2019-04-24T07:30:42.398Z,15.40
2019-04-24T07:31:42.803Z,14.10
2019-04-24T07:32:33.166Z,15.00
2019-04-24T07:33:28.573Z,15.40
2019-04-24T07:34:32.038Z,13.60
2019-04-24T07:36:39.457Z,15.10
2019-04-24T07:37:38.702Z,14.70
2019-04-24T07:38:28.296Z,13.00
2019-04-24T07:39:38.553Z,13.90
2019-04-24T07:40:32.257Z,14.50
2019-04-24T07:41:34.537Z,13.60
2019-04-24T07:44:23.188Z,13.90
2019-04-24T07:45:36.570Z,14.40
2019-04-24T07:46:25.342Z,14.30
2019-04-24T07:47:24.969Z,14.70
2019-04-24T07:48:30.490Z,15.40
2019-04-24T07:49:26.071Z,14.10
2019-04-24T07:50:36.488Z,13.90
2019-04-24T07:52:36.978Z,15.20
2019-04-24T07:53:31.828Z,13.80
2019-04-24T07:55:28.862Z,13.10
2019-04-24T07:56:34.543Z,14.50
2019-04-24T07:58:29.960Z,13.90
2019-04-24T07:59:59.258Z,14.00
2019-04-24T08:00:20.567Z,14.00
2019-04-24T08:02:27.625Z,14.70
2019-04-24T08:04:42.360Z,13.90
2019-04-24T08:05:19.672Z,13.40
2019-04-24T08:06:32.335Z,13.80
2019-04-24T08:07:29.045Z,13.80
2019-04-24T08:08:37.660Z,12.80
2019-04-24T08:09:49.507Z,12.00
2019-04-24T08:11:24.233Z,13.40
2019-04-24T08:12:23.118Z,13.10
2019-04-24T08:14:52.478Z,13.20
2019-04-24T08:16:14.997Z,11.90
2019-04-24T08:18:22.726Z,12.00
2019-04-24T08:19:40.197Z,11.50
2019-04-24T08:20:29.026Z,11.50
2019-04-24T08:21:22.467Z,11.00
2019-04-24T08:22:33.363Z,10.60
2019-04-24T08:24:37.860Z,11.00
2019-04-24T08:25:18.907Z,11.20
2019-04-24T08:26:23.694Z,10.60
2019-04-24T08:29:27.058Z,11.40
2019-04-24T08:30:28.570Z,11.80
2019-04-24T08:31:33.288Z,12.70
2019-04-24T08:32:25.099Z,12.10
2019-04-24T08:33:40.956Z,11.50
2019-04-24T08:34:45.822Z,10.20
2019-04-24T08:35:32.408Z,10.50
2019-04-24T08:36:19.777Z,10.20
2019-04-24T08:37:31.100Z,9.80
2019-04-24T08:40:20.961Z,8.90
2019-04-24T08:42:27.094Z,8.60
2019-04-24T08:45:18.379Z,10.50
2019-04-24T08:47:28.818Z,10.10
2019-04-24T08:49:23.590Z,9.30
2019-04-24T08:51:26.918Z,10.10
2019-04-24T08:53:16.647Z,8.60
2019-04-24T08:54:13.158Z,9.10
2019-04-24T08:56:23.033Z,7.80
2019-04-24T08:59:43.854Z,7.90
2019-04-24T09:00:18.415Z,7.30
2019-04-24T09:01:29.956Z,7.50
2019-04-24T09:02:14.491Z,7.20
2019-04-24T09:03:25.254Z,7.40
2019-04-24T09:04:39.504Z,8.70
2019-04-24T09:05:11.471Z,8.80
2019-04-24T09:06:11.987Z,7.70
2019-04-24T09:07:16.312Z,7.40
2019-04-24T09:09:18.278Z,7.60
2019-04-24T09:10:51.798Z,8.20
2019-04-24T09:11:23.121Z,8.30
2019-04-24T09:15:17.002Z,8.60
2019-04-24T09:16:21.854Z,9.30
2019-04-24T09:20:23.805Z,8.70
2019-04-24T09:21:15.612Z,7.50
2019-04-24T09:22:23.338Z,7.80
2019-04-24T09:23:44.052Z,9.00
2019-04-24T09:24:35.198Z,8.30
2019-04-24T09:27:19.555Z,8.80
2019-04-24T09:29:21.300Z,7.30
2019-04-24T09:33:16.583Z,7.20
2019-04-24T09:34:06.721Z,7.40
2019-04-24T09:35:16.651Z,7.10
2019-04-24T09:36:42.567Z,7.00
2019-04-24T09:37:17.839Z,6.40
2019-04-24T09:38:25.354Z,8.80
2019-04-24T09:39:38.749Z,7.20
2019-04-24T09:41:27.936Z,7.10
2019-04-24T09:47:12.986Z,8.20
2019-04-24T09:48:16.458Z,7.20
2019-04-24T09:49:07.473Z,7.00
2019-04-24T09:50:15.064Z,7.50
2019-04-24T09:51:30.136Z,7.10
2019-04-24T09:52:18.372Z,7.10
2019-04-24T09:54:12.601Z,9.40
2019-04-24T09:56:13.064Z,7.00
2019-04-24T09:58:14.243Z,6.90
2019-04-24T10:00:08.548Z,6.60
2019-04-24T10:02:17.456Z,6.60
2019-04-24T10:04:21.975Z,6.30
2019-04-24T10:05:23.829Z,7.30
2019-04-24T10:07:29.935Z,6.30
2019-04-24T10:08:14.296Z,6.40
2019-04-24T10:09:08.312Z,7.10
2019-04-24T10:11:28.942Z,7.40
2019-04-24T10:13:03.001Z,7.20
2019-04-24T10:14:12.386Z,5.90
2019-04-24T10:15:05.907Z,6.20
2019-04-24T10:16:05.704Z,6.70
2019-04-24T10:19:23.104Z,7.10
2019-04-24T10:20:22.735Z,6.70
2019-04-24T10:21:03.206Z,7.00
2019-04-24T10:22:06.447Z,7.40
2019-04-24T10:24:07.341Z,6.70
2019-04-24T10:25:12.153Z,6.30
2019-04-24T10:26:10.155Z,6.60
2019-04-24T10:27:08.715Z,6.60
2019-04-24T10:29:26.560Z,6.50
2019-04-24T10:30:04.476Z,6.10
2019-04-24T10:31:08.688Z,5.80
2019-04-24T10:34:05.976Z,7.10
2019-04-24T10:35:09.040Z,6.20
2019-04-24T10:36:07.572Z,5.40
2019-04-24T10:37:10.533Z,6.40
2019-04-24T10:38:23.970Z,6.10
2019-04-24T10:39:16.305Z,7.30
2019-04-24T10:40:15.302Z,5.80
2019-04-24T10:41:09.272Z,5.80
2019-04-24T10:43:08.221Z,5.90
2019-04-24T10:44:11.432Z,5.70
2019-04-24T10:45:08.833Z,5.70
2019-04-24T10:46:05.341Z,5.80
2019-04-24T10:48:14.830Z,5.60
2019-04-24T10:49:13.292Z,7.20
2019-04-24T10:50:00.444Z,6.10
2019-04-24T10:53:17.253Z,5.50
2019-04-24T10:53:56.350Z,5.40
2019-04-24T10:55:09.779Z,5.80
2019-04-24T10:56:24.520Z,5.90
2019-04-24T10:57:08.900Z,5.80
2019-04-24T10:59:03.441Z,6.40
2019-04-24T11:00:05.802Z,6.00
2019-04-24T11:01:32.338Z,5.00
2019-04-24T11:02:20.600Z,5.60
2019-04-24T11:03:13.808Z,5.10
2019-04-24T11:04:05.050Z,5.00
2019-04-24T11:05:20.588Z,5.60
2019-04-24T11:06:09.712Z,5.20
2019-04-24T11:07:23.178Z,6.00
2019-04-24T11:09:16.520Z,5.90
2019-04-24T11:11:06.279Z,4.80
2019-04-24T11:13:17.336Z,6.40
2019-04-24T11:14:14.208Z,5.70
2019-04-24T11:15:12.331Z,7.70
2019-04-24T11:18:11.756Z,5.90
2019-04-24T11:20:00.026Z,6.50
2019-04-24T11:21:31.201Z,7.40
2019-04-24T11:22:05.756Z,5.70
2019-04-24T11:24:11.206Z,5.40
2019-04-24T11:25:13.754Z,6.60
2019-04-24T11:26:13.599Z,7.10
2019-04-24T11:28:11.566Z,5.40
2019-04-24T11:29:05.579Z,5.40
2019-04-24T11:31:09.380Z,6.00
2019-04-24T11:32:19.242Z,5.90
2019-04-24T11:33:16.689Z,5.50
2019-04-24T11:36:12.324Z,6.80
2019-04-24T11:37:01.137Z,5.60
2019-04-24T11:38:18.808Z,6.80
2019-04-24T11:39:18.098Z,7.10
2019-04-24T11:41:00.823Z,6.80
2019-04-24T11:42:03.208Z,6.00
2019-04-24T11:43:13.641Z,6.00
2019-04-24T11:45:11.100Z,7.90
2019-04-24T11:46:05.422Z,6.00
2019-04-24T11:48:18.401Z,5.50
2019-04-24T11:49:10.921Z,5.40
2019-04-24T11:50:36.666Z,5.10
2019-04-24T11:52:09.623Z,5.30
2019-04-24T11:53:55.893Z,5.40
2019-04-24T11:59:45.413Z,5.70
2019-04-24T12:00:55.390Z,6.50
2019-04-24T12:02:05.280Z,5.50
2019-04-24T12:02:56.119Z,5.70
2019-04-24T12:06:06.366Z,5.80
2019-04-24T12:08:07.783Z,6.00
2019-04-24T12:10:04.843Z,5.40
2019-04-24T12:11:23.999Z,5.70
2019-04-24T12:11:56.866Z,5.00
2019-04-24T12:13:07.462Z,5.40
2019-04-24T12:14:21.136Z,7.40
2019-04-24T12:15:05.181Z,6.30
2019-04-24T12:16:53.446Z,7.60
2019-04-24T12:18:00.962Z,5.40
2019-04-24T12:18:57.474Z,7.30
2019-04-24T12:21:24.563Z,5.40
2019-04-24T12:22:00.752Z,5.10
2019-04-24T12:23:01.983Z,5.90
2019-04-24T12:24:05.996Z,5.60
2019-04-24T12:24:56.838Z,5.30
2019-04-24T12:26:03.009Z,5.40
2019-04-24T12:26:51.373Z,6.40
2019-04-24T12:31:07.773Z,5.60
2019-04-24T12:32:05.387Z,5.40
2019-04-24T12:32:51.915Z,6.00
2019-04-24T12:33:46.700Z,7.80
2019-04-24T12:34:59.000Z,6.40
2019-04-24T12:35:54.377Z,5.30
2019-04-24T12:37:03.031Z,7.40
2019-04-24T12:38:58.550Z,6.50
2019-04-24T12:40:03.607Z,4.80
2019-04-24T12:40:56.634Z,5.60
2019-04-24T12:42:02.312Z,4.90
2019-04-24T12:43:04.626Z,5.20
2019-04-24T12:44:44.971Z,5.30
2019-04-24T12:46:04.515Z,4.80
2019-04-24T12:47:03.446Z,7.10
2019-04-24T12:47:53.020Z,6.00
2019-04-24T12:49:55.114Z,5.60
2019-04-24T12:51:16.731Z,6.40
2019-04-24T12:52:54.403Z,6.80
2019-04-24T12:54:05.828Z,5.20
2019-04-24T12:56:08.006Z,5.10
2019-04-24T12:58:03.515Z,6.20
2019-04-24T12:59:48.362Z,5.40
2019-04-24T13:01:03.420Z,7.90
2019-04-24T13:02:00.954Z,6.30
2019-04-24T13:02:52.003Z,6.30
2019-04-24T13:06:38.579Z,5.70
2019-04-24T13:09:09.610Z,5.50
2019-04-24T13:10:08.682Z,5.10
2019-04-24T13:11:57.737Z,6.10
2019-04-24T13:12:54.753Z,5.20
2019-04-24T13:15:01.692Z,5.80
2019-04-24T13:15:56.763Z,6.60
2019-04-24T13:19:08.653Z,5.60
2019-04-24T13:20:30.499Z,6.20
2019-04-24T13:21:33.461Z,8.40
2019-04-24T13:22:37.679Z,7.10
2019-04-24T13:23:44.753Z,6.60
2019-04-24T13:24:43.510Z,7.00
2019-04-24T13:25:55.626Z,5.60
2019-04-24T13:27:08.631Z,6.60
2019-04-24T13:28:12.684Z,6.90
2019-04-24T13:29:14.930Z,5.80
2019-04-24T13:30:10.450Z,6.00
2019-04-24T13:31:07.033Z,6.00
2019-04-24T13:31:58.550Z,6.00
2019-04-24T13:33:05.186Z,6.40
2019-04-24T13:33:54.328Z,5.40
2019-04-24T13:35:04.401Z,6.70
2019-04-24T13:36:08.844Z,6.50
2019-04-24T13:38:07.884Z,6.00
2019-04-24T13:39:10.167Z,8.00
2019-04-24T13:39:55.619Z,6.70
2019-04-24T13:41:02.817Z,7.70
2019-04-24T13:42:04.844Z,6.00
2019-04-24T13:43:00.847Z,7.70
2019-04-24T13:46:02.049Z,6.20
2019-04-24T13:46:54.784Z,6.00
2019-04-24T13:48:07.183Z,6.80
2019-04-24T13:49:08.874Z,6.40
2019-04-24T13:49:53.887Z,8.00
2019-04-24T13:50:50.608Z,6.10
2019-04-24T13:52:14.331Z,6.50
2019-04-24T13:53:27.500Z,7.30
2019-04-24T13:54:56.661Z,6.60
2019-04-24T13:56:54.589Z,7.00
2019-04-24T13:58:01.235Z,9.60
2019-04-24T13:58:51.440Z,6.20
2019-04-24T14:00:09.263Z,6.50
2019-04-24T14:00:57.972Z,6.80
2019-04-24T14:02:04.936Z,6.70
2019-04-24T14:04:58.898Z,6.60
2019-04-24T14:09:10.983Z,7.30
2019-04-24T14:11:31.304Z,6.60
2019-04-24T14:16:02.187Z,8.00
2019-04-24T14:16:58.317Z,7.80
2019-04-24T14:18:11.574Z,7.90
2019-04-24T14:19:07.614Z,6.90
2019-04-24T14:19:59.425Z,7.00
2019-04-24T14:20:51.160Z,7.60
2019-04-24T14:21:50.285Z,6.30
2019-04-24T14:23:03.993Z,7.20
2019-04-24T14:24:03.886Z,6.80
2019-04-24T14:25:05.712Z,6.50
2019-04-24T14:25:56.075Z,7.10
2019-04-24T14:26:59.699Z,6.70
2019-04-24T14:28:16.096Z,6.40
2019-04-24T14:28:48.812Z,6.50
2019-04-24T14:29:48.481Z,6.60
2019-04-24T14:30:56.410Z,8.40
2019-04-24T14:33:05.508Z,8.70
2019-04-24T14:33:51.781Z,7.70
2019-04-24T14:34:56.012Z,6.70
2019-04-24T14:36:02.291Z,7.50
2019-04-24T14:37:03.486Z,6.70
2019-04-24T14:37:53.374Z,6.70
2019-04-24T14:38:57.828Z,6.50
2019-04-24T14:39:53.023Z,6.70
2019-04-24T14:40:52.782Z,6.10
2019-04-24T14:42:01.192Z,6.30
2019-04-24T14:43:01.437Z,7.00
2019-04-24T14:44:04.748Z,6.50
2019-04-24T14:45:07.098Z,6.70
2019-04-24T14:46:03.539Z,6.80
2019-04-24T14:46:59.236Z,6.20
2019-04-24T14:47:44.750Z,7.20
2019-04-24T14:48:51.311Z,7.20
2019-04-24T14:50:47.529Z,7.10
2019-04-24T14:51:47.927Z,6.80
2019-04-24T14:53:59.231Z,7.30
2019-04-24T14:54:54.832Z,6.80
2019-04-24T14:55:47.653Z,7.20
2019-04-24T14:56:54.878Z,7.40
2019-04-24T14:57:58.563Z,7.00
2019-04-24T14:58:56.432Z,8.70
2019-04-24T14:59:55.434Z,8.00
2019-04-24T15:00:46.901Z,8.50
2019-04-24T15:02:00.581Z,6.80
2019-04-24T15:02:55.016Z,7.80
2019-04-24T15:03:49.527Z,7.30
2019-04-24T15:04:46.782Z,7.30
2019-04-24T15:06:01.298Z,6.60
2019-04-24T15:07:01.296Z,6.90
2019-04-24T15:08:54.470Z,6.30
2019-04-24T15:09:45.469Z,7.20
2019-04-24T15:10:45.577Z,7.10
2019-04-24T15:12:08.894Z,7.60
2019-04-24T15:12:57.368Z,7.30
2019-04-24T15:15:04.242Z,7.20
2019-04-24T15:16:11.509Z,7.50
2019-04-24T15:17:50.741Z,7.40
2019-04-24T15:20:44.540Z,8.50
2019-04-24T15:21:56.319Z,7.70
2019-04-24T15:24:14.228Z,7.60
2019-04-24T15:24:58.894Z,7.80
2019-04-24T15:27:46.914Z,8.10
2019-04-24T15:28:56.887Z,9.30
2019-04-24T15:29:39.778Z,7.70
2019-04-24T15:30:43.840Z,8.10
2019-04-24T15:31:52.709Z,8.00
2019-04-24T15:33:54.018Z,8.60
2019-04-24T15:34:57.168Z,11.90
2019-04-24T15:36:00.923Z,8.60
2019-04-24T15:36:45.033Z,7.70
2019-04-24T15:37:54.387Z,7.70
2019-04-24T15:39:49.507Z,9.00
2019-04-24T15:40:54.223Z,9.20
2019-04-24T15:41:49.065Z,8.60
2019-04-24T15:42:55.222Z,7.90
2019-04-24T15:43:55.015Z,7.70
2019-04-24T15:44:48.383Z,7.90
2019-04-24T15:45:47.303Z,8.20
2019-04-24T15:46:51.678Z,7.70
2019-04-24T15:47:48.097Z,8.30
2019-04-24T15:49:46.282Z,8.20
2019-04-24T15:51:34.862Z,8.80
2019-04-24T15:52:12.878Z,8.00
2019-04-24T15:53:12.128Z,8.30
2019-04-24T15:54:12.021Z,8.00
2019-04-24T15:55:11.931Z,8.30
2019-04-24T15:56:11.846Z,8.30
2019-04-24T15:57:11.753Z,8.70
2019-04-24T15:58:20.128Z,8.60
2019-04-24T15:59:27.466Z,8.60
2019-04-24T16:00:47.515Z,8.50
2019-04-24T16:01:39.844Z,9.10
2019-04-24T16:02:51.567Z,8.50
2019-04-24T16:04:46.921Z,7.90
2019-04-24T16:05:11.042Z,8.30
2019-04-24T16:06:11.294Z,8.40
2019-04-24T16:07:10.858Z,8.80
2019-04-24T16:08:11.242Z,7.90
2019-04-24T16:09:10.678Z,8.40
2019-04-24T16:10:11.506Z,9.20
2019-04-24T16:11:11.348Z,8.30
2019-04-24T16:12:10.410Z,8.10
2019-04-24T16:13:14.562Z,7.80
2019-04-24T16:14:28.641Z,11.60
2019-04-24T16:15:41.898Z,10.60
2019-04-24T16:16:43.401Z,10.50
2019-04-24T16:17:41.594Z,9.10
2019-04-24T16:19:04.157Z,9.40
2019-04-24T16:20:37.218Z,11.30
2019-04-24T16:21:37.089Z,9.10
2019-04-24T16:24:06.607Z,11.10
2019-04-24T16:25:36.820Z,12.40
2019-04-24T16:27:47.009Z,11.40
2019-04-24T16:29:28.704Z,11.60
2019-04-24T16:30:30.778Z,12.10
2019-04-24T16:32:01.712Z,12.40
2019-04-24T16:33:56.653Z,12.80
2019-04-24T16:34:43.139Z,13.30
2019-04-24T16:35:47.901Z,12.90
2019-04-24T16:36:42.551Z,13.90
2019-04-24T16:37:38.270Z,13.10
2019-04-24T16:38:40.242Z,13.30
2019-04-24T16:39:35.274Z,13.00
2019-04-24T16:41:50.070Z,14.40
2019-04-24T16:43:00.599Z,13.30
2019-04-24T16:44:42.926Z,12.90
2019-04-24T16:45:45.250Z,13.30
2019-04-24T16:46:52.181Z,14.10
2019-04-24T16:48:24.024Z,13.30
2019-04-24T16:50:48.569Z,13.50
2019-04-24T16:51:47.496Z,13.90
2019-04-24T16:52:33.395Z,13.80
2019-04-24T16:53:39.638Z,14.20
2019-04-24T16:54:29.747Z,14.20
2019-04-24T16:57:50.735Z,14.10
2019-04-24T16:58:31.557Z,15.80
2019-04-24T16:59:21.371Z,14.80
2019-04-24T17:01:04.677Z,14.80
2019-04-24T17:02:26.471Z,15.10
2019-04-24T17:03:59.960Z,15.60
2019-04-24T17:08:39.550Z,16.90
2019-04-24T17:09:35.243Z,17.10
2019-04-24T17:13:38.261Z,18.70
2019-04-24T17:14:48.174Z,16.80
2019-04-24T17:15:29.608Z,18.70
2019-04-24T17:16:39.855Z,19.30
2019-04-24T17:17:41.579Z,18.90
2019-04-24T17:18:37.547Z,18.90
2019-04-24T17:20:42.468Z,19.10
2019-04-24T17:23:39.195Z,19.10
2019-04-24T17:24:36.192Z,20.00
2019-04-24T17:25:40.069Z,19.20
2019-04-24T17:26:52.708Z,19.00
2019-04-24T17:27:31.753Z,20.30
2019-04-24T17:28:33.310Z,20.40
2019-04-24T17:29:37.098Z,18.70
2019-04-24T17:30:40.913Z,20.00
2019-04-24T17:32:35.788Z,20.70
2019-04-24T17:33:31.284Z,19.90
2019-04-24T17:36:21.249Z,21.00
2019-04-24T17:37:02.967Z,21.00
2019-04-24T17:38:02.651Z,19.90
2019-04-24T17:39:02.882Z,21.00
2019-04-24T17:40:02.484Z,21.50
2019-04-24T17:41:03.563Z,20.70
2019-04-24T17:42:10.000Z,20.20
2019-04-24T17:43:23.998Z,19.90
2019-04-24T17:44:44.730Z,20.40
2019-04-24T17:45:30.048Z,20.30
2019-04-24T17:46:27.241Z,21.10
2019-04-24T17:47:27.765Z,20.70
2019-04-24T17:48:21.012Z,19.90
2019-04-24T17:49:35.737Z,19.70
2019-04-24T17:51:27.801Z,20.90
2019-04-24T17:53:30.204Z,20.30
2019-04-24T17:54:21.065Z,21.00
2019-04-24T17:55:25.388Z,20.60
2019-04-24T17:56:37.398Z,19.70
2019-04-24T17:58:04.628Z,20.10
2019-04-24T17:59:02.846Z,19.70
2019-04-24T18:00:02.114Z,19.90
2019-04-24T18:01:01.776Z,19.90
2019-04-24T18:02:00.449Z,20.10
2019-04-24T18:03:06.671Z,20.70
2019-04-24T18:04:01.138Z,19.30
2019-04-24T18:05:00.191Z,19.70
2019-04-24T18:06:00.148Z,19.50
2019-04-24T18:06:59.993Z,19.70
2019-04-24T18:08:01.463Z,20.10
2019-04-24T18:09:01.292Z,19.20
2019-04-24T18:09:59.723Z,20.50
2019-04-24T18:10:59.639Z,19.30
2019-04-24T18:11:59.532Z,19.60
2019-04-24T18:12:59.437Z,19.20
2019-04-24T18:13:59.347Z,19.80
2019-04-24T18:14:59.359Z,20.30
2019-04-24T18:15:59.180Z,19.00
2019-04-24T18:16:59.076Z,19.50
2019-04-24T18:17:58.977Z,19.60
2019-04-24T18:18:58.890Z,19.90
2019-04-24T18:20:01.195Z,19.80
2019-04-24T18:20:58.724Z,19.10
2019-04-24T18:21:58.713Z,19.90
2019-04-24T18:22:58.517Z,19.50
2019-04-24T18:23:58.429Z,19.00
2019-04-24T18:24:58.333Z,19.00
2019-04-24T18:25:58.258Z,19.30
2019-04-24T18:26:58.151Z,20.10
2019-04-24T18:27:58.059Z,19.90
2019-04-24T18:28:58.065Z,19.30
2019-04-24T18:29:57.873Z,19.70
2019-04-24T18:30:57.796Z,19.50
2019-04-24T18:31:57.687Z,19.20
2019-04-24T18:32:57.598Z,19.40
2019-04-24T18:33:57.504Z,17.90
2019-04-24T18:34:57.412Z,18.80
2019-04-24T18:35:57.439Z,18.40
2019-04-24T18:36:57.227Z,18.70
2019-04-24T18:38:06.670Z,18.90
2019-04-24T18:38:57.040Z,18.40
2019-04-24T18:39:56.966Z,18.60
2019-04-24T18:40:56.878Z,18.20
2019-04-24T18:41:56.762Z,18.80
2019-04-24T18:42:56.773Z,18.30
2019-04-24T18:43:56.579Z,18.00
2019-04-24T18:44:56.485Z,17.80
2019-04-24T18:45:56.413Z,18.60